KRCR/RCR METAR and TAF weather

Enter ICAO airport designator
Station Type Date Time Source
KRCR METAR 2021/05/14 06:55 UTC NOAA

KRCR 140655Z AUTO 00000KT 10SM CLR 06/02 A3032 RMK AO2


Station Type Date Time Source
KRCR Decoded METAR 2021/05/14 06:55 UTC NOAA

Station name not available
May 14, 2021 - 02:55 AM EDT / 2021.05.14 0655 UTC
Wind: Calm:0
Visibility: 10 mile(s):0
Sky conditions: clear
Temperature: 42 F (6 C)
Dew Point: 35 F (2 C)
Relative Humidity: 75%
Pressure (altimeter): 30.32 in. Hg (1026 hPa)
ob: KRCR 140655Z AUTO 00000KT 10SM CLR 06/02 A3032 RMK AO2
cycle: 7

Station Type Date Time Source
KRCR TAF UTC NOAA

Error!

Example: see airport list